Auburn, New York
Current Conditions -  °F | °C
As of 10:14 AM on Friday 19 Dec 2014 (Local Time) from KSYR Reporting Station
Overcast Overcast  
Wind Chill: 15°   Ceiling: 2100
Heat Index: 24°   Visibility: 10mi
Dew Point: 20°   Wind: 8mph
Humidity: 84%   Direction: 300°WNW
Pressure: 30.15"   Gusts: NA
Location:  42.93°N, 76.56°W
Report Text: KSYR 191514Z 30007KT 10SM OVC021 M04/M07 A3015 RMK AO2 SNE08 P0000 T10441067
Loading
Personal Weather Stations






























Interactive Weather Map New forecast layout! Learn more

10-Day Weather Forecast

Advertisements
Track Severe Weather on mobile